• Join FlightAware (Why Join?)
  • Login
  • US Flag 
05:20PM EDT


 

Airport Tracker/Info


-or-


 

Live Flight TrackerFlight Track Log ✈ SWA311 ✈ 21-Apr-2013 ✈ KFLL - KHOU

Flight Track Log - Related Links

Times and Time Zones

All times are in EDT time to prevent confusion due to time zone crossing. See the SWA311 flight status page for this flight to view local times or setup timezone preferences in your user account.

Time Position Orientation Groundspeed Altitude Reporting Facility
EDT Latitude Longitude Course Direction KTS MPH feet Rate Location/Type
11:49AM 26.0750 -80.1344 84° East 168 193 900  Level Miami Center
11:50AM 26.0803 -80.0789 84° East 196 226 3,100 1,740 Climbing Miami Center
11:51AM 26.1483 -80.0322 32° Northeast 278 320 4,700 720 Climbing Miami Center
11:53AM 26.2242 -80.0944 324° Northwest 274 315 5,000 600 Climbing Miami Center
11:54AM 26.2369 -80.1781 280° West 253 291 6,300 1,980 Climbing Miami Center
11:55AM 26.2497 -80.2619 280° West 265 305 9,000 1,320 Climbing Miami Center
11:56AM 26.2581 -80.3456 276° West 277 319 9,000  Level Miami Center
11:57AM 26.2728 -80.4294 281° West 277 319 9,100 660 Climbing Miami Center
11:58AM 26.2853 -80.5131 279° West 277 319 10,400 1,260 Climbing Miami Center
11:59AM 26.3186 -80.6022 293° West 290 334 11,700 2,160 Climbing Miami Center
12:00PM 26.3808 -80.6947 307° West 349 402 14,800 2,700 Climbing Miami Center
12:01PM 26.4411 -80.7894 305° West 378 435 17,200 2,460 Climbing Miami Center
12:02PM 26.5072 -80.8892 307° West 398 458 19,800 2,340 Climbing Miami Center
12:03PM 26.5733 -80.9911 306° West 398 458 21,900 2,100 Climbing Miami Center
12:04PM 26.6411 -81.0981 305° West 416 479 24,000 2,100 Climbing Miami Center
12:05PM 26.7031 -81.1956 305° West 423 487 26,200 2,100 Climbing Miami Center
12:06PM 26.7708 -81.3050 305° West 428 493 28,200 2,400 Climbing Miami Center
12:07PM 26.8403 -81.4172 305° West 419 482 31,100 2,580 Climbing Miami Center
12:08PM 26.8933 -81.5239 299° West 402 463 33,400 1,440 Climbing Miami Center
12:09PM 26.9406 -81.6144 300° West 381 438 34,000 300 Climbing Miami Center
12:10PM 26.9931 -81.7283 297° West 381 438 34,000  Level Miami Center
12:11PM 27.0439 -81.8261 300° West 375 432 34,000  Level Miami Center
12:12PM 27.0800 -81.9347 290° West 369 425 34,000  Level Miami Center
12:13PM 27.1114 -82.0458 288° West 376 433 34,000  Level Miami Center
12:14PM 27.1392 -82.1450 287° West 376 433 34,000  Level Miami Center
12:15PM 27.1706 -82.2561 288° West 371 427 34,000  Level Miami Center
12:16PM 27.2081 -82.3700 290° West 371 427 34,000 600 Level Miami Center
12:17PM 27.2372 -82.4764 287° West 366 421 35,300 960 Climbing Miami Center
12:18PM 27.2681 -82.5947 286° West 366 421 36,000 720 Climbing Miami Center
12:19PM 27.2975 -82.6917 289° West 371 427 36,800 780 Climbing Miami Center
12:20PM 27.3264 -82.8031 286° West 371 427 37,600 600 Climbing Miami Center
12:21PM 27.3631 -82.9264 289° West 371 427 38,000 180 Climbing Miami Center
12:22PM 27.3917 -83.0378 286° West 371 427 38,000  Level Miami Center
12:23PM 27.4267 -83.1472 290° West 371 427 38,000  Level Miami Center
12:24PM 27.4575 -83.2542 288° West 371 427 38,000  Level Miami Center
12:25PM 27.4836 -83.3656 285° West 366 421 38,000  Level Miami Center
12:26PM 27.5142 -83.4725 288° West 366 421 38,000  Level Miami Center
12:27PM 27.5447 -83.5819 288° West 366 421 38,000  Level Miami Center
12:28PM 27.5769 -83.6939 288° West 366 421 38,000  Level Miami Center
12:29PM 27.6050 -83.8031 286° West 366 421 38,000  Level Miami Center
12:30PM 27.6414 -83.9153 290° West 366 421 38,000  Level Miami Center
12:31PM 27.6672 -84.0225 285° West 366 421 38,000  Level Miami Center
12:32PM 27.6994 -84.1322 288° West 366 421 38,000  Level Miami Center
12:33PM 27.7253 -84.2392 285° West 366 421 38,000  Level Miami Center
12:34PM 27.7531 -84.3464 286° West 366 421 38,000  Level Miami Center
12:34PM 27.7697 -84.3911 293° West 363 418 38,000  Level Jacksonville Center
12:35PM 27.7936 -84.5042 283° West 368 423 38,000  Level Jacksonville Center
12:36PM 27.8275 -84.6150 289° West 368 423 38,000  Level Jacksonville Center
12:37PM 27.8636 -84.7258 290° West 368 423 38,000  Level Jacksonville Center
12:38PM 27.8889 -84.8556 282° West 376 433 38,000  Level Jacksonville Center
12:39PM 27.9186 -84.9569 288° West 370 426 38,000  Level Jacksonville Center
12:40PM 27.9500 -85.0681 288° West 370 426 38,000  Level Jacksonville Center
12:41PM 27.9794 -85.1767 287° West 370 426 38,000  Level Jacksonville Center
12:42PM 28.0025 -85.2853 284° West 365 420 38,000  Level Jacksonville Center
12:43PM 28.0233 -85.3964 282° West 357 411 38,000  Level Jacksonville Center
12:44PM 28.0461 -85.5122 283° West 366 421 38,000  Level Jacksonville Center
12:45PM 28.0708 -85.6256 284° West 371 427 38,000  Level Jacksonville Center
12:46PM 28.0914 -85.7344 282° West 366 421 38,000  Level Jacksonville Center
12:47PM 28.1139 -85.8456 283° West 371 427 38,000  Level Jacksonville Center
12:48PM 28.1344 -85.9522 282° West 367 422 38,000  Level Jacksonville Center
12:49PM 28.1586 -86.0728 283° West 374 430 38,000  Level Jacksonville Center
12:50PM 28.1808 -86.1842 283° West 368 423 38,000  Level Jacksonville Center
12:51PM 28.2031 -86.2981 283° West 373 429 38,000  Level Jacksonville Center
12:52PM 28.2231 -86.4069 282° West 368 423 38,000 -60 Level Jacksonville Center
12:53PM 28.2450 -86.5114 283° West 361 415 37,900  Descending Jacksonville Center
12:54PM 28.2669 -86.6278 282° West 356 410 38,000  Climbing Jacksonville Center
12:55PM 28.2867 -86.7344 282° West 356 410 38,000  Level Jacksonville Center
12:56PM 28.3081 -86.8483 282° West 364 419 38,000  Level Jacksonville Center
12:57PM 28.3278 -86.9575 282° West 359 413 38,000  Level Jacksonville Center
12:58PM 28.3531 -87.0789 283° West 372 428 38,000  Level Jacksonville Center
12:59PM 28.3703 -87.1858 280° West 372 428 38,000  Level Jacksonville Center
01:00PM 28.3933 -87.3047 282° West 364 419 38,000  Level Jacksonville Center
01:01PM 28.4125 -87.4139 281° West 379 436 38,000  Level Jacksonville Center
01:03PM 28.4481 -87.5997 282° West 372 428 38,000  Level Houston Center
01:04PM 28.4683 -87.7133 282° West 368 423 38,000  Level Houston Center
01:05PM 28.4881 -87.8264 281° West 367 422 38,000  Level Houston Center
01:06PM 28.5092 -87.9369 282° West 361 415 38,000  Level Houston Center
01:07PM 28.5286 -88.0481 281° West 359 413 38,000  Level Houston Center
01:08PM 28.5508 -88.1781 281° West 356 410 38,000  Level Houston Center
01:09PM 28.5706 -88.2867 282° West 354 407 38,000  Level Houston Center
01:10PM 28.5906 -88.3981 282° West 359 413 38,000  Level Houston Center
01:11PM 28.6097 -88.5086 281° West 358 412 38,000  Level Houston Center
01:12PM 28.6292 -88.6181 281° West 356 410 38,000  Level Houston Center
01:13PM 28.6483 -88.7297 281° West 357 411 38,000  Level Houston Center
01:14PM 28.6714 -88.8631 281° West 359 413 38,000  Level Houston Center
01:15PM 28.6911 -88.9750 281° West 362 417 38,000  Level Houston Center
01:16PM 28.7106 -89.0869 281° West 362 417 38,000  Level Houston Center
01:17PM 28.7281 -89.1992 280° West 362 417 38,000  Level Houston Center
01:18PM 28.7478 -89.3103 281° West 360 414 38,000  Level Houston Center
01:19PM 28.7667 -89.4217 281° West 360 414 38,000  Level Houston Center
01:20PM 28.7883 -89.5542 281° West 356 410 38,000  Level Houston Center
01:22PM 28.8069 -89.6667 281° West 360 414 38,000  Level Houston Center
01:23PM 28.8261 -89.7769 281° West 356 410 38,000  Level Houston Center
01:24PM 28.8436 -89.8869 280° West 353 406 38,000  Level Houston Center
01:25PM 28.8617 -89.9958 281° West 351 404 38,000  Level Houston Center
01:26PM 28.8794 -90.1075 280° West 356 410 38,000  Level Houston Center
01:27PM 28.9019 -90.2400 281° West 355 409 38,000  Level Houston Center
01:28PM 28.9194 -90.3506 280° West 354 407 38,000  Level Houston Center
01:29PM 28.9369 -90.4592 280° West 350 403 38,000  Level Houston Center
01:30PM 28.9544 -90.5703 280° West 355 409 38,000  Level Houston Center
01:31PM 28.9722 -90.6800 281° West 353 406 38,000  Level Houston Center
01:32PM 28.9897 -90.7911 280° West 356 410 38,000  Level Houston Center
01:33PM 29.0100 -90.9231 280° West 352 405 38,000  Level Houston Center
01:34PM 29.0192 -91.0347 275° West 353 406 38,000  Level Houston Center
01:35PM 29.0286 -91.1461 276° West 353 406 38,000  Level Houston Center
01:36PM 29.0378 -91.2567 275° West 353 406 38,000  Level Houston Center
01:37PM 29.0478 -91.3675 276° West 351 404 38,000  Level Houston Center
01:38PM 29.0556 -91.4786 275° West 352 405 38,000  Level Houston Center
01:39PM 29.0664 -91.6131 275° West 353 406 38,000  Level Houston Center
01:40PM 29.0756 -91.7247 275° West 354 407 38,000  Level Houston Center
01:41PM 29.0853 -91.8431 275° West 353 406 38,000  Level Houston Center
01:42PM 29.0942 -91.9522 275° West 345 397 38,000  Level Houston Center
01:43PM 29.1028 -92.0619 275° West 346 398 38,000  Level Houston Center
01:44PM 29.1100 -92.1711 274° West 344 396 38,000  Level Houston Center
01:45PM 29.1197 -92.2822 276° West 349 402 38,000  Level Houston Center
01:46PM 29.1281 -92.3933 275° West 351 404 38,000  Level Houston Center
01:47PM 29.1372 -92.5297 274° West 356 410 38,000  Level Houston Center
01:48PM 29.1458 -92.6428 275° West 357 411 38,000  Level Houston Center
01:49PM 29.1542 -92.7569 275° West 360 414 38,000 -300 Level Houston Center
01:51PM 29.1631 -92.8703 275° West 358 412 37,500 -780 Descending Houston Center
01:52PM 29.1700 -92.9822 274° West 354 407 36,500 -1,020 Descending Houston Center
01:53PM 29.1781 -93.0911 275° West 346 398 35,500 -1,020 Descending Houston Center
01:54PM 29.1878 -93.2258 275° West 352 405 34,400 -960 Descending Houston Center
01:55PM 29.1944 -93.3417 274° West 362 417 33,500 -960 Descending Houston Center
01:56PM 29.2031 -93.4586 275° West 367 422 32,500 -1,860 Descending Houston Center
01:57PM 29.2106 -93.5722 274° West 361 415 29,700 -2,580 Descending Houston Center
01:58PM 29.2181 -93.6861 274° West 359 413 27,200 -2,400 Descending Houston Center
01:59PM 29.2253 -93.8000 274° West 357 411 24,800 -2,580 Descending Houston Center
02:00PM 29.2322 -93.9169 274° West 361 415 22,400 -2,460 Descending Houston Center
02:01PM 29.2411 -94.0367 275° West 359 413 19,800 -2,040 Descending Houston Center
02:02PM 29.2478 -94.1647 273° West 340 391 17,900 -1,560 Descending Houston Center
02:03PM 29.2544 -94.2731 274° West 341 392 16,600 -1,920 Descending Houston Center
02:04PM 29.2614 -94.3903 274° West 331 381 14,000 -2,580 Descending Houston Center
02:05PM 29.2736 -94.4917 278° West 329 379 11,300 -1,980 Descending Houston Center
02:06PM 29.3192 -94.5936 297° West 342 394 10,000 -660 Descending Houston Center
02:07PM 29.3592 -94.6717 300° West 338 389 10,000  Level Houston Center
02:08PM 29.4125 -94.7803 299° West 326 375 10,000 -600 Level Houston Center
02:09PM 29.4494 -94.8550 300° West 277 319 8,800 -1,320 Descending Houston Center
02:10PM 29.4872 -94.9308 300° West 273 314 7,300 -1,260 Descending Houston Center
02:11PM 29.5239 -95.0056 299° West 268 308 6,300 -720 Descending Houston Center
02:12PM 29.5617 -95.0842 299° West 265 305 5,900 -180 Descending Houston Center
02:13PM 29.5875 -95.1581 292° West 226 260 6,000  Climbing Houston Center
02:14PM 29.5664 -95.2253 250° West 224 258 6,000 -480 Level Houston Center
02:15PM 29.5178 -95.2867 228° Southwest 231 266 5,000 -840 Descending Houston Center
02:16PM 29.4844 -95.3361 232° Southwest 195 224 4,300 -1,080 Descending Houston Center
02:17PM 29.5075 -95.3839 299° West 207 238 3,000 -1,080 Descending Houston Center
02:18PM 29.5517 -95.3833 North 163 188 2,200 -780 Descending Houston Center
02:19PM 29.5878 -95.3406 46° Northeast 170 196 1,500 -780 Descending Houston Center
02:20PM 29.6144 -95.3108 44° Northeast 135 155 700 -780 Descending Houston Center
02:21PM 29.6186 -95.3078 33° Northeast 161 185 600 -360 Descending Houston Center